TimeMST,TemperatureF,Dew PointF,Humidity,Sea Level PressureIn,VisibilityMPH,Wind Direction,Wind SpeedMPH,Gust SpeedMPH,PrecipitationIn,Events,Conditions,WindDirDegrees,DateUTC
12:53 AM,53.1,14.0,21,29.80,10.0,SW,8.1,-,N/A,,Clear,220,2013-03-08 07:53:00
1:53 AM,50.0,15.1,25,29.80,10.0,SW,3.5,-,N/A,,Clear,220,2013-03-08 08:53:00
2:53 AM,46.9,14.0,27,29.79,10.0,WSW,4.6,-,N/A,,Clear,240,2013-03-08 09:53:00
3:53 AM,46.9,16.0,29,29.80,10.0,SW,5.8,-,N/A,,Clear,230,2013-03-08 10:53:00
4:53 AM,43.0,14.0,31,29.81,10.0,West,6.9,-,N/A,,Clear,260,2013-03-08 11:53:00
5:53 AM,42.1,14.0,32,29.83,10.0,SSW,5.8,-,N/A,,Clear,210,2013-03-08 12:53:00
6:53 AM,46.0,17.1,31,29.81,10.0,SSW,4.6,-,N/A,,Clear,200,2013-03-08 13:53:00
7:53 AM,50.0,18.0,28,29.81,10.0,Variable,3.5,-,N/A,,Partly Cloudy,0,2013-03-08 14:53:00
8:53 AM,55.0,21.9,28,29.81,10.0,Variable,5.8,-,N/A,,Mostly Cloudy,0,2013-03-08 15:53:00
9:53 AM,59.0,24.1,26,29.81,10.0,South,12.7,19.6,N/A,,Overcast,190,2013-03-08 16:53:00
10:53 AM,59.0,27.0,29,29.78,10.0,South,12.7,-,0.00,Rain,Light Rain,180,2013-03-08 17:53:00
11:53 AM,60.1,30.0,32,29.76,10.0,South,19.6,27.6,0.00,,Overcast,190,2013-03-08 18:53:00
12:53 PM,60.1,35.1,39,29.73,10.0,South,24.2,33.4,N/A,,Overcast,180,2013-03-08 19:53:00
1:53 PM,50.0,46.0,86,29.77,10.0,SW,11.5,-,0.03,Rain,Light Rain,230,2013-03-08 20:53:00
2:53 PM,55.0,45.0,69,29.73,10.0,South,15.0,-,0.03,,Scattered Clouds,180,2013-03-08 21:53:00
3:53 PM,60.1,37.9,44,29.68,10.0,SW,28.8,39.1,0.00,,Mostly Cloudy,220,2013-03-08 22:53:00
4:53 PM,59.0,34.0,39,29.68,10.0,SW,28.8,36.8,N/A,,Partly Cloudy,230,2013-03-08 23:53:00
5:53 PM,55.9,28.0,34,29.68,10.0,SSW,33.4,46.0,N/A,,Scattered Clouds,210,2013-03-09 00:53:00
6:53 PM,53.1,32.0,45,29.68,10.0,SSW,25.3,35.7,N/A,,Clear,210,2013-03-09 01:53:00
7:53 PM,50.0,36.0,59,29.71,10.0,SSW,23.0,35.7,0.00,,Overcast,210,2013-03-09 02:53:00
8:53 PM,46.0,37.0,71,29.70,10.0,WSW,8.1,-,N/A,,Clear,240,2013-03-09 03:53:00
9:53 PM,44.1,36.0,73,29.69,10.0,South,8.1,-,N/A,,Clear,170,2013-03-09 04:53:00
10:53 PM,48.0,30.9,52,29.69,10.0,SSW,15.0,-,N/A,,Mostly Cloudy,210,2013-03-09 05:53:00
11:39 PM,44.6,32.0,61,29.84,10.0,West,18.4,27.6,N/A,,Scattered Clouds,280,2013-03-09 06:39:00
11:53 PM,43.0,30.9,62,29.71,10.0,West,18.4,24.2,N/A,,Partly Cloudy,270,2013-03-09 06:53:00